Time;durP1;ratioP1;P1;durP2;ratioP2;P2;SDS_P1;SDS_P2;PMS_P1;PMS_P2;Temp;Humidity;BMP_temperature;BMP_pressure;BME280_temperature;BME280_humidity;BME280_pressure;Samples;Min_cycle;Max_cycle;Signal;HPM_P1;HPM_P2
2022/01/02 00:01:56;;;;;;;19.45;5.75;;;;;;;12.33;51.60;101399.38;5073796;28;20041;-70
2022/01/02 00:04:25;;;;;;;15.93;5.82;;;;;;;12.69;51.17;101391.25;5074647;28;20381;-70
2022/01/02 00:06:52;;;;;;;11.10;4.90;;;;;;;12.15;52.38;101383.25;5072775;28;20136;-70
2022/01/02 00:09:31;;;;;;;14.40;4.75;;;;;;;12.58;50.95;101385.13;5073310;28;20132;-70
2022/01/02 00:12:11;;;;;;;11.23;4.18;;;;;;;12.37;51.11;101382.78;5074004;28;20040;-70
2022/01/02 00:14:42;;;;;;;21.27;5.70;;;;;;;12.83;50.66;101377.22;5072998;28;20050;-70
2022/01/02 00:17:09;;;;;;;25.30;5.70;;;;;;;12.83;50.27;101371.84;5073003;28;20567;-70
2022/01/02 00:19:40;;;;;;;25.02;5.75;;;;;;;12.66;50.63;101370.91;5074036;28;20071;-71
2022/01/02 00:22:14;;;;;;;18.10;5.70;;;;;;;12.76;50.35;101363.56;5075086;28;20068;-71
2022/01/02 00:24:42;;;;;;;14.77;5.90;;;;;;;12.50;51.32;101360.00;5073546;28;20466;-70
2022/01/02 00:27:11;;;;;;;16.77;5.60;;;;;;;12.35;51.09;101357.88;5073495;28;20346;-70
2022/01/02 00:29:39;;;;;;;18.20;5.50;;;;;;;11.74;52.64;101342.53;5074428;28;20068;-70
2022/01/02 00:32:07;;;;;;;14.75;5.70;;;;;;;11.76;52.95;101345.06;5071042;28;20128;-71
2022/01/02 00:34:35;;;;;;;15.82;5.63;;;;;;;11.47;53.49;101340.72;5071971;28;20048;-71
2022/01/02 00:37:06;;;;;;;12.43;5.85;;;;;;;12.04;52.02;101327.03;5073483;28;20472;-71
2022/01/02 00:39:33;;;;;;;14.97;5.87;;;;;;;11.55;53.47;101315.75;5075749;28;20087;-71
2022/01/02 00:42:09;;;;;;;12.60;5.85;;;;;;;11.86;52.49;101314.44;5075776;28;20271;-70
2022/01/02 00:44:46;;;;;;;12.23;6.45;;;;;;;11.90;52.66;101313.13;5074376;28;20041;-70
2022/01/02 00:47:30;;;;;;;11.23;6.03;;;;;;;11.60;53.41;101295.50;5075325;28;20040;-70
2022/01/02 00:50:11;;;;;;;12.80;5.60;;;;;;;11.88;52.68;101290.91;5075698;28;20096;-70
2022/01/02 00:52:41;;;;;;;13.95;6.70;;;;;;;11.84;52.47;101286.03;5075905;28;20521;-70
2022/01/02 00:55:11;;;;;;;18.02;6.35;;;;;;;11.89;52.64;101286.38;5074964;28;20040;-70
2022/01/02 00:57:40;;;;;;;19.10;6.90;;;;;;;11.88;52.16;101282.84;5075020;28;20123;-70
2022/01/02 01:00:15;;;;;;;15.75;6.75;;;;;;;11.83;52.43;101276.25;5058411;28;20131;-70
2022/01/02 01:02:54;;;;;;;16.73;6.72;;;;;;;11.66;53.03;101265.38;5075430;28;20167;-71
2022/01/02 01:05:24;;;;;;;18.25;6.28;;;;;;;11.76;52.64;101267.97;5075895;28;20052;-70
2022/01/02 01:08:08;;;;;;;17.10;6.10;;;;;;;12.07;51.82;101272.91;5075691;28;20044;-71
2022/01/02 01:10:36;;;;;;;12.95;7.03;;;;;;;11.79;52.86;101278.41;5075958;28;20064;-71
2022/01/02 01:13:05;;;;;;;16.40;6.50;;;;;;;11.89;52.06;101275.63;5075686;28;20068;-70
2022/01/02 01:15:33;;;;;;;16.02;7.18;;;;;;;12.10;51.62;101268.06;5074316;28;20447;-71
2022/01/02 01:18:02;;;;;;;18.52;7.55;;;;;;;11.85;52.08;101253.59;5072023;28;20076;-71
2022/01/02 01:20:37;;;;;;;16.58;7.22;;;;;;;11.46;53.00;101263.78;5073113;28;20067;-70
2022/01/02 01:23:03;;;;;;;14.40;6.85;;;;;;;11.80;52.76;101250.53;5072045;28;20123;-70
2022/01/02 01:25:30;;;;;;;22.25;6.97;;;;;;;11.82;52.29;101247.69;5072935;28;20215;-70
2022/01/02 01:27:56;;;;;;;16.98;6.95;;;;;;;11.15;53.89;101249.88;5073496;28;20067;-70
2022/01/02 01:30:26;;;;;;;18.02;6.70;;;;;;;11.78;53.02;101247.16;5073675;28;20090;-70
2022/01/02 01:32:53;;;;;;;16.33;6.78;;;;;;;11.62;52.71;101241.59;5071538;28;20125;-69
2022/01/02 01:35:21;;;;;;;17.40;7.13;;;;;;;11.60;52.62;101227.47;5075544;28;20067;-70
2022/01/02 01:37:48;;;;;;;17.00;6.70;;;;;;;11.73;52.70;101217.22;5077384;28;20056;-70
2022/01/02 01:40:16;;;;;;;18.15;6.88;;;;;;;12.01;52.20;101214.41;5078242;28;20044;-69
2022/01/02 01:42:59;;;;;;;18.35;6.68;;;;;;;11.80;52.03;101215.59;5067925;28;20059;-70
2022/01/02 01:45:29;;;;;;;13.15;6.90;;;;;;;11.60;52.77;101198.75;5083112;28;20508;-69
2022/01/02 01:47:59;;;;;;;18.90;7.30;;;;;;;11.17;53.88;101199.53;5084912;28;20381;-69
2022/01/02 01:50:29;;;;;;;16.27;7.03;;;;;;;11.22;53.98;101186.50;5082579;28;20068;-69
2022/01/02 01:52:56;;;;;;;15.65;7.47;;;;;;;11.39;53.35;101192.88;5084059;28;20071;-69
2022/01/02 01:55:29;;;;;;;16.05;6.55;;;;;;;11.33;53.94;101174.69;5068242;28;20074;-70
2022/01/02 01:57:59;;;;;;;20.48;6.80;;;;;;;10.90;54.64;101165.53;5083983;28;20064;-70
2022/01/02 02:00:26;;;;;;;11.68;6.85;;;;;;;11.52;52.78;101170.97;5083071;28;20087;-70
2022/01/02 02:02:55;;;;;;;14.07;6.78;;;;;;;11.45;53.25;101158.16;5084248;28;21414;-69
2022/01/02 02:09:09;;;;;;;16.70;7.07;;;;;;;11.38;53.43;101157.09;5083667;28;20160;-69
2022/01/02 02:11:37;;;;;;;16.67;7.05;;;;;;;11.56;52.63;101138.28;5083792;28;20051;-69
2022/01/02 02:14:06;;;;;;;18.20;6.82;;;;;;;11.45;52.88;101147.44;5082967;28;20045;-69
2022/01/02 02:16:35;;;;;;;18.63;7.13;;;;;;;11.43;52.69;101154.78;5084166;28;20070;-69
2022/01/02 02:19:03;;;;;;;12.75;6.55;;;;;;;11.40;52.95;101160.47;5082496;28;20048;-69
2022/01/02 02:21:35;;;;;;;15.32;6.70;;;;;;;11.25;53.02;101148.59;5083827;28;20064;-69
2022/01/02 02:24:05;;;;;;;21.05;7.20;;;;;;;10.94;54.06;101140.91;5074776;28;20048;-69
2022/01/02 02:26:33;;;;;;;17.40;7.40;;;;;;;10.93;54.42;101144.59;5083215;28;20044;-69
2022/01/02 02:29:01;;;;;;;17.10;7.13;;;;;;;10.99;54.44;101143.97;5082994;28;20083;-69
2022/01/02 02:31:28;;;;;;;14.88;6.53;;;;;;;10.87;54.43;101122.88;5064375;28;20105;-69
2022/01/02 02:33:54;;;;;;;16.05;7.13;;;;;;;10.94;54.48;101123.97;5080249;28;20047;-69
2022/01/02 02:36:21;;;;;;;12.40;6.35;;;;;;;10.70;54.89;101124.56;5082328;28;20062;-69
2022/01/02 02:38:48;;;;;;;18.42;7.45;;;;;;;11.18;53.82;101137.63;5083288;28;20043;-69
2022/01/02 02:41:14;;;;;;;14.75;6.47;;;;;;;10.95;53.74;101125.66;5082414;28;20055;-69
2022/01/02 02:43:53;;;;;;;15.50;6.80;;;;;;;11.05;54.18;101107.63;5082838;28;20369;-69
2022/01/02 02:49:05;;;;;;;15.05;6.80;;;;;;;10.61;54.82;101078.00;5080702;28;20044;-70
2022/01/02 02:52:04;;;;;;;13.45;6.88;;;;;;;10.45;55.20;101059.88;5081609;28;20044;-69
2022/01/02 02:54:31;;;;;;;14.70;6.65;;;;;;;10.56;55.52;101053.47;5082841;28;20067;-70
2022/01/02 02:56:59;;;;;;;16.98;7.00;;;;;;;10.87;54.03;101058.47;5078818;28;20112;-69
2022/01/02 02:59:30;;;;;;;12.02;5.82;;;;;;;9.97;56.50;101055.63;5078064;28;20055;-70
2022/01/02 03:01:58;;;;;;;18.23;6.53;;;;;;;10.67;54.67;101053.25;5078563;28;20056;-69
2022/01/02 03:04:25;;;;;;;15.93;6.32;;;;;;;10.35;55.73;101048.34;5078666;28;20050;-69
2022/01/02 03:06:52;;;;;;;12.10;6.57;;;;;;;10.42;55.22;101049.44;5076368;28;20044;-70
2022/01/02 03:09:37;;;;;;;13.88;6.95;;;;;;;10.87;54.36;101053.94;5076208;28;20378;-69
2022/01/02 03:12:10;;;;;;;14.20;6.25;;;;;;;11.08;53.55;101058.16;5074037;28;20040;-69
2022/01/02 03:14:37;;;;;;;14.95;6.38;;;;;;;10.56;54.76;101041.91;5078233;28;20416;-69
2022/01/02 03:17:04;;;;;;;15.10;6.38;;;;;;;10.41;55.31;101038.84;5077337;28;20491;-69
2022/01/02 03:19:32;;;;;;;13.63;6.68;;;;;;;10.40;55.07;101032.63;5078333;28;20048;-68
2022/01/02 03:21:59;;;;;;;15.32;6.43;;;;;;;10.48;55.14;101022.03;5079113;28;20425;-68
2022/01/02 03:24:26;;;;;;;16.40;6.70;;;;;;;10.38;55.07;101023.09;5078149;28;20109;-69
2022/01/02 03:26:53;;;;;;;16.52;5.82;;;;;;;10.48;54.47;101016.66;5077514;28;20064;-69
2022/01/02 03:29:19;;;;;;;14.10;6.63;;;;;;;10.78;54.08;101022.66;5056472;28;20424;-69
2022/01/02 03:31:46;;;;;;;12.90;6.53;;;;;;;10.69;54.40;101008.34;5076210;28;20127;-70
2022/01/02 03:34:12;;;;;;;10.48;5.80;;;;;;;10.91;53.96;101006.16;5078399;28;20048;-69
2022/01/02 03:36:39;;;;;;;13.65;6.20;;;;;;;10.84;54.22;101019.34;5077832;28;20037;-69
2022/01/02 03:39:05;;;;;;;13.02;5.75;;;;;;;10.56;54.62;101020.44;5077215;28;20064;-69
2022/01/02 03:41:32;;;;;;;13.40;6.60;;;;;;;11.05;53.44;101010.13;5077609;28;20115;-68
2022/01/02 03:43:59;;;;;;;10.88;6.25;;;;;;;10.91;54.03;101011.53;5074896;28;20499;-69
2022/01/02 03:46:25;;;;;;;14.63;5.93;;;;;;;10.87;53.74;101010.16;5078188;28;20157;-69
2022/01/02 03:48:52;;;;;;;12.52;5.93;;;;;;;10.75;54.29;100998.81;5077770;28;20440;-69
2022/01/02 03:51:19;;;;;;;12.20;6.10;;;;;;;10.85;53.91;100988.81;5078103;28;20075;-69
2022/01/02 03:53:45;;;;;;;13.88;6.40;;;;;;;10.61;54.68;100983.25;5076627;28;20071;-70
2022/01/02 03:56:12;;;;;;;14.48;5.82;;;;;;;10.76;54.19;100972.84;5079077;28;20040;-69
2022/01/02 03:58:38;;;;;;;18.02;6.07;;;;;;;10.61;54.54;100978.72;5077691;28;20071;-69
2022/01/02 04:01:05;;;;;;;19.05;7.18;;;;;;;10.68;54.54;100973.59;5076462;28;20049;-70
2022/01/02 04:03:32;;;;;;;11.02;6.38;;;;;;;10.50;54.87;100979.81;5077266;28;20056;-69
2022/01/02 04:05:58;;;;;;;11.02;5.95;;;;;;;10.57;54.57;100974.66;5077767;28;20557;-69
2022/01/02 04:08:25;;;;;;;13.70;6.13;;;;;;;10.94;53.44;100962.91;5077708;28;20106;-69
2022/01/02 04:10:51;;;;;;;12.90;6.50;;;;;;;10.77;54.47;100961.09;5079015;28;20044;-69
2022/01/02 04:13:18;;;;;;;14.52;5.93;;;;;;;10.26;55.21;100961.59;5077103;28;20040;-71
2022/01/02 04:15:44;;;;;;;11.73;6.13;;;;;;;10.73;54.73;100961.41;5078451;28;20094;-71
2022/01/02 04:18:11;;;;;;;15.77;6.20;;;;;;;10.83;54.45;100966.69;5078169;28;20040;-71
2022/01/02 04:20:37;;;;;;;12.05;5.95;;;;;;;11.20;53.20;100968.25;5076229;28;20048;-71
2022/01/02 04:23:04;;;;;;;15.10;6.55;;;;;;;11.52;52.30;100956.00;5076756;28;20044;-71
2022/01/02 04:25:30;;;;;;;12.20;6.35;;;;;;;11.35;52.63;100965.84;5076140;28;20068;-71
2022/01/02 04:27:56;;;;;;;14.98;6.03;;;;;;;10.84;53.93;100975.56;5067269;28;20120;-71
2022/01/02 04:30:23;;;;;;;9.98;5.47;;;;;;;11.26;52.92;100969.47;5075537;28;20048;-71
2022/01/02 04:32:52;;;;;;;14.65;6.20;;;;;;;12.43;49.96;100990.31;5074785;28;20044;-71
2022/01/02 04:35:18;;;;;;;13.48;5.80;;;;;;;12.03;50.27;100981.94;5075510;28;20064;-71
2022/01/02 04:37:46;;;;;;;13.25;5.30;;;;;;;11.86;51.44;100986.47;5077559;28;20048;-72
2022/01/02 04:40:12;;;;;;;13.55;6.22;;;;;;;11.91;50.68;100991.34;5058472;28;20040;-70
2022/01/02 04:42:39;;;;;;;12.43;5.90;;;;;;;11.26;52.73;100988.28;5076120;28;20102;-71
2022/01/02 04:45:07;;;;;;;12.07;6.28;;;;;;;11.14;53.28;100985.03;5065124;28;20121;-72
2022/01/02 04:47:34;;;;;;;12.35;5.60;;;;;;;11.27;52.58;101004.22;5073942;28;20112;-71
2022/01/02 04:50:01;;;;;;;12.55;5.28;;;;;;;11.16;53.21;100991.06;5074099;28;20040;-70
2022/01/02 04:52:28;;;;;;;14.05;6.03;;;;;;;11.54;52.10;100978.19;5076182;28;20086;-70
2022/01/02 04:54:54;;;;;;;10.27;5.30;;;;;;;11.62;51.54;100970.16;5076491;28;20040;-71
2022/01/02 04:57:20;;;;;;;12.02;5.70;;;;;;;11.90;51.32;100982.44;5074845;28;20469;-71
2022/01/02 04:59:47;;;;;;;11.60;5.75;;;;;;;11.93;51.17;100976.72;5076310;28;20389;-71
2022/01/02 05:02:14;;;;;;;13.07;6.40;;;;;;;11.65;51.68;100973.38;5077034;28;20040;-71
2022/01/02 05:04:40;;;;;;;11.07;5.90;;;;;;;11.66;51.57;100972.44;5077542;28;20062;-71
2022/01/02 05:07:07;;;;;;;12.63;5.65;;;;;;;11.64;51.47;100982.44;5077134;28;20064;-70
2022/01/02 05:09:34;;;;;;;14.02;6.28;;;;;;;11.62;51.68;100971.03;5076613;28;20040;-70
2022/01/02 05:12:00;;;;;;;12.65;6.22;;;;;;;12.15;50.49;100969.06;5077607;28;20405;-70
2022/01/02 05:14:27;;;;;;;14.50;6.18;;;;;;;11.51;52.16;100960.53;5078283;28;20048;-70
2022/01/02 05:16:53;;;;;;;11.80;6.35;;;;;;;11.36;52.63;100951.41;5077834;28;20049;-71
2022/01/02 05:19:20;;;;;;;13.57;6.68;;;;;;;11.42;52.28;100950.78;5077656;28;20055;-71
2022/01/02 05:21:47;;;;;;;11.75;6.53;;;;;;;11.34;52.79;100953.41;5077396;28;20024;-71
2022/01/02 05:24:13;;;;;;;13.70;6.75;;;;;;;11.45;52.26;100937.03;5078958;28;20063;-69
2022/01/02 05:26:39;;;;;;;18.65;6.68;;;;;;;11.47;52.43;100921.56;5077664;28;20045;-69
2022/01/02 05:29:06;;;;;;;14.93;6.70;;;;;;;11.17;53.08;100906.81;5076509;28;20048;-69
2022/01/02 05:31:33;;;;;;;14.20;6.97;;;;;;;11.48;52.67;100906.28;5067571;28;20056;-69
2022/01/02 05:33:59;;;;;;;13.05;6.28;;;;;;;11.61;52.51;100912.91;5057127;28;20081;-70
2022/01/02 05:36:26;;;;;;;19.75;6.90;;;;;;;11.40;52.60;100905.25;5066876;28;20048;-70
2022/01/02 05:38:52;;;;;;;16.95;7.25;;;;;;;10.85;54.15;100896.72;5075049;28;20103;-69
2022/01/02 05:41:19;;;;;;;15.70;6.95;;;;;;;10.95;54.22;100901.00;5074350;28;20060;-69
2022/01/02 05:43:45;;;;;;;16.25;6.88;;;;;;;10.98;54.20;100908.72;5059672;28;20153;-71
2022/01/02 05:46:12;;;;;;;15.07;7.57;;;;;;;10.45;55.28;100903.47;5077436;28;20509;-70
2022/01/02 05:48:38;;;;;;;15.25;6.88;;;;;;;11.11;53.66;100899.41;5056412;28;20566;-68
2022/01/02 05:51:05;;;;;;;15.98;7.40;;;;;;;11.46;52.94;100888.50;5076001;28;20044;-70
2022/01/02 05:53:31;;;;;;;14.10;6.93;;;;;;;11.05;53.70;100881.25;5076065;28;20454;-69
2022/01/02 05:55:58;;;;;;;13.02;6.82;;;;;;;10.68;54.74;100882.34;5076230;28;20045;-69
2022/01/02 05:58:24;;;;;;;14.13;6.97;;;;;;;10.91;54.35;100875.47;5066483;28;20048;-70
2022/01/02 06:00:51;;;;;;;18.45;7.93;;;;;;;10.94;53.99;100872.47;5074724;28;20056;-70
2022/01/02 06:03:18;;;;;;;15.65;7.50;;;;;;;11.26;53.32;100872.81;5076385;28;20028;-70
2022/01/02 06:05:46;;;;;;;17.08;7.90;;;;;;;10.66;54.86;100881.69;5077507;28;20063;-70
2022/01/02 06:08:12;;;;;;;13.40;7.30;;;;;;;10.80;54.76;100881.13;5076372;28;20207;-70
2022/01/02 06:10:39;;;;;;;19.50;7.25;;;;;;;10.79;54.98;100868.69;5074875;28;20049;-70
2022/01/02 06:13:06;;;;;;;16.67;7.75;;;;;;;10.79;54.70;100860.66;5073034;28;20131;-69
2022/01/02 06:15:33;;;;;;;14.40;7.53;;;;;;;10.70;55.34;100853.53;5073298;28;20132;-70
2022/01/02 06:17:59;;;;;;;14.48;7.30;;;;;;;10.81;55.02;100850.59;5072835;28;20044;-69
2022/01/02 06:20:26;;;;;;;18.73;7.60;;;;;;;10.99;54.45;100845.97;5072846;28;20128;-69
2022/01/02 06:22:54;;;;;;;15.40;7.63;;;;;;;11.16;54.36;100854.97;5072560;28;20072;-69
2022/01/02 06:25:21;;;;;;;14.63;8.10;;;;;;;10.84;54.89;100854.78;5073132;28;20044;-68
2022/01/02 06:27:48;;;;;;;16.30;7.85;;;;;;;10.57;55.63;100845.91;5071505;28;20056;-70
2022/01/02 06:30:15;;;;;;;17.77;7.28;;;;;;;10.85;54.96;100832.31;5073210;28;20097;-69
2022/01/02 06:32:42;;;;;;;12.02;7.03;;;;;;;10.66;55.75;100838.75;5074902;28;20503;-70
2022/01/02 06:35:08;;;;;;;15.07;7.85;;;;;;;11.12;54.78;100829.44;5076763;28;20143;-70
2022/01/02 06:37:35;;;;;;;15.52;7.38;;;;;;;11.23;54.27;100828.31;5076730;28;20075;-69
2022/01/02 06:40:03;;;;;;;14.27;7.25;;;;;;;10.64;55.63;100825.47;5075516;28;20046;-72
2022/01/02 06:42:30;;;;;;;16.73;7.25;;;;;;;11.05;54.60;100832.94;5075588;28;20108;-71
2022/01/02 06:44:56;;;;;;;15.35;7.05;;;;;;;10.95;54.85;100828.50;5075771;28;20119;-71
2022/01/02 06:47:23;;;;;;;18.60;7.30;;;;;;;11.10;54.81;100833.28;5075875;28;20044;-70
2022/01/02 06:49:49;;;;;;;15.55;7.30;;;;;;;10.94;54.78;100826.00;5077341;28;20448;-69
2022/01/02 06:52:15;;;;;;;11.82;6.60;;;;;;;10.89;55.42;100836.38;5078103;28;20075;-70
2022/01/02 06:54:42;;;;;;;12.85;6.68;;;;;;;10.62;55.80;100840.09;5074337;28;20043;-70
2022/01/02 06:57:08;;;;;;;13.55;6.85;;;;;;;10.78;55.89;100842.00;5075812;28;20127;-69
2022/01/02 06:59:35;;;;;;;11.57;7.03;;;;;;;10.77;55.53;100838.50;5076469;28;20560;-69
2022/01/02 07:02:02;;;;;;;12.13;6.25;;;;;;;11.27;54.64;100821.59;5077105;28;20131;-69
2022/01/02 07:04:29;;;;;;;15.13;6.63;;;;;;;10.74;55.52;100820.84;5076510;28;20098;-70
2022/01/02 07:06:55;;;;;;;12.38;7.07;;;;;;;10.74;56.18;100806.59;5075376;28;20465;-69
2022/01/02 07:09:22;;;;;;;12.45;6.55;;;;;;;10.47;56.16;100819.13;5073967;28;20131;-69
2022/01/02 07:11:48;;;;;;;14.77;6.30;;;;;;;10.47;57.17;100805.72;5074631;28;20515;-70
2022/01/02 07:14:14;;;;;;;12.93;6.18;;;;;;;10.78;56.16;100807.97;5074798;28;20044;-70
2022/01/02 07:16:41;;;;;;;9.73;6.30;;;;;;;10.45;56.47;100807.75;5074124;28;20154;-69
2022/01/02 07:19:07;;;;;;;10.88;5.35;;;;;;;10.77;56.42;100806.28;5075004;28;20135;-69
2022/01/02 07:21:34;;;;;;;10.65;6.03;;;;;;;10.92;55.89;100810.03;5074023;28;20135;-69
2022/01/02 07:24:00;;;;;;;21.00;7.05;;;;;;;11.44;54.46;100811.75;5074670;28;20068;-70
2022/01/02 07:26:26;;;;;;;10.23;6.15;;;;;;;10.98;55.74;100812.09;5075145;28;20068;-69
2022/01/02 07:28:53;;;;;;;11.30;5.88;;;;;;;11.12;55.19;100793.69;5074402;28;20087;-70
2022/01/02 07:31:19;;;;;;;13.15;6.28;;;;;;;11.25;55.15;100786.03;5075373;28;20047;-69
2022/01/02 07:33:46;;;;;;;11.40;5.97;;;;;;;11.28;54.98;100788.38;5074957;28;20054;-69
2022/01/02 07:36:12;;;;;;;11.38;5.63;;;;;;;11.38;55.22;100802.53;5074511;28;20495;-69
2022/01/02 07:38:39;;;;;;;11.10;5.78;;;;;;;11.06;55.99;100803.22;5073927;28;20471;-69
2022/01/02 07:41:05;;;;;;;12.18;5.60;;;;;;;11.38;54.81;100813.25;5073657;28;20064;-69
2022/01/02 07:43:32;;;;;;;13.52;5.65;;;;;;;11.14;55.67;100819.38;5074041;28;20071;-69
2022/01/02 07:45:58;;;;;;;11.77;5.13;;;;;;;11.34;55.14;100811.88;5075521;28;20247;-69
2022/01/02 07:48:25;;;;;;;10.63;5.53;;;;;;;11.26;55.06;100819.09;5075250;28;20068;-70
2022/01/02 07:50:51;;;;;;;15.48;5.55;;;;;;;11.67;54.51;100812.00;5075734;28;20524;-69
2022/01/02 07:53:18;;;;;;;13.05;5.22;;;;;;;11.32;54.79;100800.47;5076424;28;20064;-69
2022/01/02 07:55:44;;;;;;;11.13;5.07;;;;;;;11.45;54.93;100789.28;5076247;28;20471;-69
2022/01/02 07:58:12;;;;;;;11.43;5.80;;;;;;;11.45;54.95;100791.97;5075018;28;20408;-69
2022/01/02 08:00:39;;;;;;;11.90;5.78;;;;;;;11.38;54.97;100793.63;5057395;28;20429;-69
2022/01/02 08:03:06;;;;;;;14.40;6.05;;;;;;;11.70;54.54;100798.25;5073876;28;20071;-69
2022/01/02 08:05:37;;;;;;;19.30;5.50;;;;;;;11.48;54.73;100801.53;5074240;28;20053;-69
2022/01/02 08:08:04;;;;;;;15.65;5.57;;;;;;;11.84;54.12;100802.13;5073927;28;20044;-69
2022/01/02 08:10:30;;;;;;;11.80;5.53;;;;;;;11.42;54.66;100803.88;5072826;28;20487;-69
2022/01/02 08:12:57;;;;;;;14.88;6.40;;;;;;;11.43;55.13;100794.78;5073995;28;20106;-70
2022/01/02 08:15:23;;;;;;;11.70;4.82;;;;;;;11.43;54.77;100794.78;5063012;28;20246;-69
2022/01/02 08:17:50;;;;;;;11.75;5.07;;;;;;;11.69;54.75;100792.03;5073944;28;20040;-69
2022/01/02 08:20:16;;;;;;;10.50;5.10;;;;;;;11.50;54.57;100796.84;5074059;28;20127;-69
2022/01/02 08:22:43;;;;;;;12.30;4.65;;;;;;;11.62;54.57;100792.81;5073704;28;20044;-70
2022/01/02 08:25:09;;;;;;;10.30;4.72;;;;;;;11.67;54.49;100798.56;5072703;28;20529;-70
2022/01/02 08:27:36;;;;;;;12.18;5.25;;;;;;;11.74;54.49;100796.91;5072165;28;20123;-70
2022/01/02 08:30:03;;;;;;;9.68;4.07;;;;;;;12.08;53.62;100790.56;5074007;28;20118;-70
2022/01/02 08:32:30;;;;;;;9.80;4.50;;;;;;;12.01;53.31;100782.31;5072814;28;20068;-72
2022/01/02 08:34:56;;;;;;;9.65;4.30;;;;;;;11.80;54.05;100773.91;5072709;28;20131;-72
2022/01/02 08:37:23;;;;;;;8.82;4.60;;;;;;;12.00;53.69;100775.22;5073130;28;20135;-71
2022/01/02 08:39:49;;;;;;;9.75;4.32;;;;;;;11.97;53.76;100772.03;5054685;28;20044;-71
2022/01/02 08:42:16;;;;;;;5.75;4.00;;;;;;;11.50;54.54;100772.66;5073653;28;20048;-72
2022/01/02 08:44:43;;;;;;;12.25;3.95;;;;;;;11.95;53.66;100766.84;5072011;28;20048;-72
2022/01/02 08:47:11;;;;;;;7.80;4.07;;;;;;;11.84;54.17;100754.59;5070956;28;20488;-72
2022/01/02 08:49:37;;;;;;;14.57;5.05;;;;;;;11.77;54.15;100761.63;5073728;28;20044;-70
2022/01/02 08:52:04;;;;;;;11.60;4.55;;;;;;;11.81;54.28;100762.16;5072649;28;20390;-70
2022/01/02 08:54:30;;;;;;;6.95;3.75;;;;;;;11.77;54.56;100763.50;5072018;28;20053;-70
2022/01/02 08:56:57;;;;;;;8.85;4.22;;;;;;;12.07;53.76;100759.28;5073719;28;20138;-69
2022/01/02 08:59:27;;;;;;;10.65;4.65;;;;;;;12.54;52.58;100756.69;5074638;28;20043;-69
2022/01/02 09:01:55;;;;;;;12.13;4.63;;;;;;;12.79;51.67;100753.94;5073520;28;20049;-69
2022/01/02 09:04:21;;;;;;;6.13;3.55;;;;;;;11.95;54.27;100760.63;5072122;28;20068;-69
2022/01/02 09:06:48;;;;;;;13.63;4.82;;;;;;;12.16;53.20;100751.03;5072665;28;20487;-70
2022/01/02 09:09:14;;;;;;;8.95;4.07;;;;;;;12.22;53.86;100743.31;5072302;28;20044;-70
2022/01/02 09:11:41;;;;;;;8.43;3.92;;;;;;;12.69;52.57;100743.34;5073054;28;21223;-69
2022/01/02 09:14:07;;;;;;;12.63;4.28;;;;;;;12.34;53.77;100731.16;5071007;28;20143;-69
2022/01/02 09:16:34;;;;;;;10.00;4.25;;;;;;;12.11;53.83;100728.38;5073419;28;20139;-69
2022/01/02 09:19:00;;;;;;;16.48;4.32;;;;;;;11.84;54.87;100725.00;5072569;28;20075;-69
2022/01/02 09:21:27;;;;;;;12.88;4.72;;;;;;;12.43;53.13;100721.25;5074750;28;20139;-69
2022/01/02 09:23:53;;;;;;;8.20;3.83;;;;;;;12.37;53.67;100731.66;5074392;28;20127;-70
2022/01/02 09:26:20;;;;;;;13.38;4.32;;;;;;;12.40;53.31;100728.63;5072658;28;20135;-69
2022/01/02 09:28:46;;;;;;;10.05;4.00;;;;;;;12.32;53.73;100734.03;5073804;28;20154;-69
2022/01/02 09:31:13;;;;;;;8.27;3.67;;;;;;;12.77;52.57;100727.19;5074061;28;20131;-69
2022/01/02 09:33:39;;;;;;;12.43;3.58;;;;;;;12.11;54.89;100725.69;5072190;28;20044;-69
2022/01/02 09:36:06;;;;;;;7.53;3.38;;;;;;;12.74;53.31;100719.47;5072751;28;20565;-70
2022/01/02 09:38:32;;;;;;;14.32;4.18;;;;;;;12.48;53.47;100711.63;5071819;28;20158;-69
2022/01/02 09:41:00;;;;;;;11.95;3.80;;;;;;;12.83;53.18;100714.88;5072965;28;20124;-69
2022/01/02 09:43:27;;;;;;;9.80;3.88;;;;;;;12.73;53.44;100703.44;5072623;28;20481;-70
2022/01/02 09:45:53;;;;;;;8.52;4.38;;;;;;;12.48;54.57;100700.03;5075308;28;20044;-71
2022/01/02 09:48:21;;;;;;;8.38;3.67;;;;;;;11.96;55.84;100700.47;5074172;28;20044;-70
2022/01/02 09:50:48;;;;;;;13.18;4.30;;;;;;;12.57;54.36;100705.19;5074798;28;20051;-70
2022/01/02 09:53:15;;;;;;;9.60;4.05;;;;;;;12.30;55.69;100698.38;5074231;28;20044;-71
2022/01/02 09:55:41;;;;;;;11.25;4.15;;;;;;;12.17;55.79;100703.47;5074779;28;20048;-70
2022/01/02 09:58:11;;;;;;;16.38;4.30;;;;;;;12.50;55.03;100703.38;5077216;28;20516;-70
2022/01/02 10:00:40;;;;;;;13.38;4.50;;;;;;;12.10;56.67;100702.47;5075891;28;20075;-71
2022/01/02 10:03:09;;;;;;;12.57;4.20;;;;;;;12.38;56.14;100700.22;5073680;28;20489;-70
2022/01/02 10:05:53;;;;;;;11.05;4.22;;;;;;;12.20;56.67;100688.84;5075987;28;20055;-70
2022/01/02 10:08:34;;;;;;;9.68;3.95;;;;;;;12.12;56.69;100687.00;5079862;28;20052;-70
2022/01/02 10:11:04;;;;;;;12.70;3.75;;;;;;;12.43;55.65;100680.88;5079581;28;20442;-71
2022/01/02 10:13:52;;;;;;;12.45;4.72;;;;;;;12.20;56.44;100662.78;5076014;28;20064;-70
2022/01/02 10:16:36;;;;;;;10.57;4.45;;;;;;;12.22;56.11;100660.75;5075344;28;20100;-71
2022/01/02 10:19:26;;;;;;;16.67;5.15;;;;;;;12.94;54.01;100659.78;5076637;28;20037;-71
2022/01/02 10:21:57;;;;;;;13.30;5.25;;;;;;;12.51;55.66;100657.47;5074980;28;20098;-70
2022/01/02 10:24:29;;;;;;;11.88;5.85;;;;;;;11.87;57.24;100641.34;5074967;28;20505;-69
2022/01/02 10:27:17;;;;;;;14.27;4.05;;;;;;;12.46;55.60;100648.25;5076560;28;20055;-69
2022/01/02 10:30:03;;;;;;;15.48;4.68;;;;;;;12.59;55.69;100632.34;5074158;28;20053;-69
2022/01/02 10:32:33;;;;;;;9.10;4.47;;;;;;;12.13;56.50;100633.03;5075304;28;20451;-69
2022/01/02 10:35:09;;;;;;;10.65;3.97;;;;;;;12.44;56.18;100624.19;5075013;28;20060;-69
2022/01/02 10:37:35;;;;;;;9.10;4.10;;;;;;;12.00;57.31;100621.16;5073912;28;20484;-69
2022/01/02 10:40:03;;;;;;;16.50;4.55;;;;;;;12.25;56.58;100614.69;5075790;28;20128;-70
2022/01/02 10:42:41;;;;;;;9.93;3.80;;;;;;;12.21;56.64;100618.75;5057195;28;20064;-70
2022/01/02 10:45:08;;;;;;;8.57;3.95;;;;;;;11.95;57.65;100610.09;5074791;28;20040;-70
2022/01/02 10:47:34;;;;;;;13.73;4.45;;;;;;;11.96;57.77;100592.94;5075442;28;20052;-69
2022/01/02 10:50:21;;;;;;;17.60;4.47;;;;;;;12.28;56.94;100576.69;5075810;28;20048;-70
2022/01/02 10:52:47;;;;;;;13.07;4.72;;;;;;;12.00;57.23;100572.75;5075675;28;20528;-71
2022/01/02 10:55:21;;;;;;;12.35;4.75;;;;;;;12.20;57.40;100557.88;5075417;28;20131;-70
2022/01/02 10:57:50;;;;;;;15.52;5.40;;;;;;;12.29;56.69;100572.16;5074324;28;20075;-70
2022/01/02 11:00:19;;;;;;;13.05;4.60;;;;;;;12.48;56.71;100566.31;5076570;28;20051;-69
2022/01/02 11:02:46;;;;;;;11.77;4.47;;;;;;;12.63;55.99;100553.81;5077033;28;20127;-69
2022/01/02 11:05:15;;;;;;;10.82;4.50;;;;;;;11.79;58.36;100566.09;5076084;28;20107;-69
2022/01/02 11:07:59;;;;;;;12.90;4.68;;;;;;;12.11;57.82;100567.84;5076469;28;20087;-70
2022/01/02 11:10:35;;;;;;;9.75;4.80;;;;;;;12.19;57.31;100560.75;5075935;28;20545;-69
2022/01/02 11:13:03;;;;;;;15.20;4.90;;;;;;;12.26;57.39;100543.75;5075285;28;20420;-72
2022/01/02 11:15:30;;;;;;;16.55;5.65;;;;;;;12.32;57.76;100528.75;5075655;28;20131;-69
2022/01/02 11:17:57;;;;;;;14.18;5.18;;;;;;;12.28;57.75;100527.41;5073445;28;20040;-69
2022/01/02 11:20:29;;;;;;;13.43;5.70;;;;;;;12.23;57.18;100508.28;5075668;28;20068;-70
2022/01/02 11:22:57;;;;;;;18.65;6.47;;;;;;;11.60;59.28;100512.72;5075288;28;20116;-69
2022/01/02 11:25:52;;;;;;;15.75;6.00;;;;;;;12.12;58.09;100498.78;5074786;28;20131;-71
2022/01/02 11:28:31;;;;;;;13.70;5.85;;;;;;;12.01;58.80;100480.34;5049099;28;20044;-70
2022/01/02 11:30:57;;;;;;;18.13;6.25;;;;;;;12.20;58.22;100495.19;5072732;28;20532;-68